»·PEaware :: N3481Q KAUN-KOAK

N3481Q :: KAUN-KOAK

FLIGHT INFORMATION

Flight Status: Arrived
Operator: Privately registered:
United States
More flights under this callsign
Pilot: Dan A. (12711)
Aircraft: CESSNA 414 CHANCELLOR
(C414)
More flights by this aircraft type
Origin: KAUN Auburn Mun
United States
Destination: KOAK Metro Oakland Intl
United States
More flights between these airports :: More routes between these airports
Route: SAC COUPS REJOY RYMAR PITTS COLLI OAK
File this flight plan on PilotEdge
Remarks:
Altitude:
(Current/Filed)
6,000ft
Speed:
(Current/Filed)
180kts
Departed: 13-Jan-18 05:46 PM
Arrived: 13-Jan-18 06:30 PM
Distance/Time
Traveled:
91nm/0:44
Distance/Time
To Go:
Arrived

Flight Plot

Page will automatically refresh every two minutes.

Flight plan parsing failed; only flown route is shown


Map Options




Map Legend


Flown Route
Filed Route
Departure Airport
Arrival Airport
Navaid (VOR, NDB)
Fix

Horizontal Profiles

Position Reports

Time Latitude Longitude Heading Altitude Ground
Speed
13-Jan-18 17:26 38.952987 -121.081349 36 1539ft 0kts
13-Jan-18 17:27 38.952994 -121.081343 26 1539ft 0kts
13-Jan-18 17:28 38.953004 -121.081339 13 1539ft 0kts
13-Jan-18 17:29 38.953028 -121.081337 356 1539ft 0kts
13-Jan-18 17:30 38.953181 -121.081391 331 1539ft 0kts
13-Jan-18 17:31 38.953184 -121.081393 331 1539ft 0kts
13-Jan-18 17:32 38.953187 -121.081395 331 1539ft 0kts
13-Jan-18 17:33 38.953190 -121.081397 331 1539ft 0kts
13-Jan-18 17:34 38.953193 -121.081399 331 1539ft 0kts
13-Jan-18 17:35 38.953196 -121.081401 331 1539ft 0kts
13-Jan-18 17:36 38.953199 -121.081403 331 1539ft 0kts
13-Jan-18 17:37 38.953201 -121.081405 331 1539ft 0kts
13-Jan-18 17:38 38.953204 -121.081407 331 1539ft 0kts
13-Jan-18 17:39 38.953208 -121.081410 332 1539ft 0kts
13-Jan-18 17:40 38.953212 -121.081413 337 1539ft 0kts
13-Jan-18 17:41 38.953217 -121.081415 342 1539ft 0kts
13-Jan-18 17:42 38.953217 -121.081415 342 1539ft 0kts
13-Jan-18 17:43 38.953217 -121.081415 342 1539ft 0kts
13-Jan-18 17:44 38.953217 -121.081415 342 1539ft 0kts
13-Jan-18 17:45 38.953620 -121.081609 336 1540ft 0kts
13-Jan-18 17:46 38.953620 -121.081609 336 1540ft 0kts
13-Jan-18 17:47 38.953620 -121.081609 336 1540ft 0kts
13-Jan-18 17:48 38.953621 -121.081609 336 1540ft 0kts
13-Jan-18 17:49 38.953621 -121.081609 336 1540ft 0kts
13-Jan-18 17:50 38.953881 -121.078803 84 1540ft 22kts
13-Jan-18 17:51 38.955206 -121.075616 312 1540ft 1kts
13-Jan-18 17:52 38.953835 -121.090453 256 1874ft 92kts
13-Jan-18 17:53 38.932855 -121.094012 226 3350ft 81kts
13-Jan-18 17:54 38.922466 -121.097625 105 2611ft 108kts
13-Jan-18 17:55 38.894824 -121.116767 238 3644ft 144kts
13-Jan-18 17:56 38.876589 -121.162169 240 4871ft 148kts
13-Jan-18 17:57 38.843195 -121.195915 199 5415ft 172kts
13-Jan-18 17:58 38.800442 -121.225917 213 5924ft 178kts
13-Jan-18 17:59 38.758460 -121.263686 215 5997ft 183kts
13-Jan-18 18:00 38.718776 -121.300276 214 5999ft 171kts
13-Jan-18 18:01 38.680536 -121.335544 214 6000ft 168kts
13-Jan-18 18:02 38.644054 -121.369169 215 5999ft 166kts
13-Jan-18 18:03 38.606646 -121.403643 215 5999ft 165kts
13-Jan-18 18:04 38.569271 -121.438033 216 6000ft 165kts
13-Jan-18 18:05 38.532035 -121.472219 216 5999ft 165kts
13-Jan-18 18:06 38.494356 -121.506680 215 5999ft 165kts
13-Jan-18 18:07 38.456753 -121.540678 215 5998ft 165kts
13-Jan-18 18:08 38.418302 -121.573290 212 5999ft 165kts
13-Jan-18 18:09 38.379256 -121.604401 211 5998ft 165kts
13-Jan-18 18:10 38.340099 -121.635116 210 5996ft 165kts
13-Jan-18 18:11 38.300791 -121.666577 211 5985ft 168kts
13-Jan-18 18:12 38.260756 -121.698567 210 5979ft 170kts
13-Jan-18 18:13 38.220479 -121.730243 210 5975ft 170kts
13-Jan-18 18:14 38.181377 -121.759584 207 5997ft 158kts
13-Jan-18 18:15 38.145968 -121.792146 217 5998ft 155kts
13-Jan-18 18:16 38.115700 -121.823469 218 5996ft 152kts
13-Jan-18 18:17 38.082947 -121.857390 218 5995ft 152kts
13-Jan-18 18:18 38.050004 -121.891403 218 5994ft 155kts
13-Jan-18 18:19 38.016165 -121.926461 218 5994ft 158kts
13-Jan-18 18:20 37.981915 -121.961809 218 5993ft 158kts
13-Jan-18 18:21 37.951260 -121.993266 216 5988ft 122kts
13-Jan-18 18:22 37.925038 -122.020152 217 5598ft 128kts
13-Jan-18 18:23 37.901852 -122.043994 217 5027ft 129kts
13-Jan-18 18:24 37.869579 -122.077001 216 4223ft 127kts
13-Jan-18 18:25 37.842325 -122.105177 216 3979ft 123kts
13-Jan-18 18:26 37.819925 -122.127205 200 3961ft 122kts
13-Jan-18 18:27 37.784231 -122.140439 161 3972ft 137kts
13-Jan-18 18:28 37.756094 -122.121685 143 3969ft 138kts
13-Jan-18 18:29 37.724617 -122.096784 146 3761ft 136kts
13-Jan-18 18:30 37.695647 -122.086907 189 2719ft 107kts
13-Jan-18 18:31 37.668354 -122.089701 188 1598ft 96kts
13-Jan-18 18:32 37.659635 -122.111650 337 418ft 86kts
13-Jan-18 18:33 37.683486 -122.129111 320 1227ft 109kts
13-Jan-18 18:34 37.709052 -122.156832 304 1159ft 126kts
13-Jan-18 18:35 37.721592 -122.196242 292 168ft 108kts
13-Jan-18 18:36 37.729686 -122.217416 23 10ft 11kts
13-Jan-18 18:37 37.730893 -122.214869 112 10ft 2kts
13-Jan-18 18:38 37.731621 -122.213544 39 10ft 0kts
13-Jan-18 18:39 37.731750 -122.213039 114 10ft 0kts

Navigation Log

Ident Type
Flight plan parsing failed, navigation log unavailable